Nearby METAR Reports

 

KICL - Clarinda, Iowa, USA
Distance from station: N 49mi, 79km
Updated: Fri, 17-Nov-2017 6:35pm CST
Mist
Mist
 Wind from NNE
Wind: NNE 6 mph , 9 km/h
Temperature: 55°F , 13°C
Dew Point: 55°F , 13°C
Humidity: 100%
Summary: Mist
Visibility: 2 1/2 miles , 2 km
2017/11/18 00:35 KICL 180035Z AUTO 02005KT 2 1/2SM BR 13/13 RMK AO2 PWINO
KDSM - Des Moines, Iowa, USA
Distance from station: NNE 122mi, 196km
Updated: Fri, 17-Nov-2017 6:48pm CST
Light drizzle, Fog, Overcast
Light drizzle, Fog, Overcast
 Wind from ESE
Wind: ESE 5 mph , 7 km/h
Temperature: 50°F , 10°C
Wind Chill: 48°F , 9°C
Dew Point: 50°F , 10°C
Humidity: 100%
Barometer: 29.54 inHg , 1000.3 hPa
Summary: Light drizzle, Fog
Clouds: Overcast
Visibility: 1/4 mile , 2 km
Cloud details: Overcast 200 ft
2017/11/18 00:48 KDSM 180048Z 11004KT 1/4SM R31/2000V2400FT -DZ FG VV002 10/10 A2954 RMK AO2 DZB11 P0000
KFNB - Falls City, Nebraska, USA
Distance from station: W 50mi, 80km
Updated: Fri, 17-Nov-2017 5:53pm CST
Clear
Clear
 Wind from E
Wind: E 6 mph , 9 km/h
Temperature: 57°F , 14°C
Dew Point: 54°F , 12°C
Humidity: 88%
Barometer: 29.47 inHg , 998 hPa
Clouds: Clear
Visibility: 8 miles , 13 km
2017/11/17 23:53 KFNB 172353Z AUTO 09005KT 8SM CLR 14/12 A2947 RMK AO2 SLP978 T01440122 10194 20144 53000
 
KMCI - Kansas City, Missouri, USA
Distance from station: S 65mi, 104km
Updated: Fri, 17-Nov-2017 5:53pm CST
Partly cloudy
Partly cloudy
 Wind from SSE
Wind: SSE 7 mph , 11 km/h
Temperature: 57°F , 14°C
Dew Point: 55°F , 13°C
Humidity: 94%
Barometer: 29.49 inHg , 998.6 hPa
Clouds: Partly cloudy
Visibility: 9 miles , 14 km
Cloud details: Partly cloudy 15000 ft
Partly cloudy 20000 ft
2017/11/17 23:53 KMCI 172353Z 16006KT 9SM SCT150 SCT200 14/13 A2949 RMK AO2 SLP983 T01440133 10206 20144 55005
KOMA - Omaha, Nebraska, USA
Distance from station: NNW 105mi, 169km
Updated: Fri, 17-Nov-2017 5:52pm CST
Overcast
Overcast
 Wind from N
Wind: N 8 mph , 13 km/h
Temperature: 57°F , 14°C
Dew Point: 52°F , 11°C
Humidity: 82%
Barometer: 29.53 inHg , 1000 hPa
Clouds: Overcast
Visibility: 7 miles , 11 km
Cloud details: Overcast 3000 ft
2017/11/17 23:52 KOMA 172352Z 01007KT 7SM OVC030 14/11 A2953 RMK AO2 SLP997 T01390106 10161 20133 53008
KRDK - Red Oak, Iowa, USA
Distance from station: N 70mi, 112km
Updated: Fri, 17-Nov-2017 6:35pm CST
Mist, Overcast
Mist, Overcast
 Wind from NNE
Wind: NNE 7 mph , 11 km/h
Temperature: 55°F , 13°C
Dew Point: 55°F , 13°C
Humidity: 100%
Barometer: 29.53 inHg , 1000 hPa
Summary: Mist
Clouds: Overcast
Visibility: 3 miles , 5 km
Cloud details: Mostly cloudy 400 ft
Mostly cloudy 1800 ft
Overcast 3500 ft
2017/11/18 00:35 KRDK 180035Z AUTO 02006KT 3SM BR BKN004 BKN018 OVC035 13/13 A2953 RMK AO2
 
KSTJ - Saint Joseph, Missouri, USA
Distance from station: SW 23mi, 37km
Updated: Fri, 17-Nov-2017 6:45pm CST
Mist, Clear
Mist, Clear
 Wind from ENE
Wind: ENE 3 mph , 6 km/h
Temperature: 52°F , 11°C
Dew Point: 52°F , 11°C
Humidity: 100%
Barometer: 29.49 inHg , 998.6 hPa
Summary: Mist
Clouds: Clear
Visibility: 2 1/2 miles , 2 km
2017/11/18 00:45 KSTJ 180045Z AUTO 06003KT 2 1/2SM BR CLR 11/11 A2949 RMK AO2 T01110106
KTOP - Topeka, Kansas, USA
Distance from station: SW 85mi, 137km
Updated: Fri, 17-Nov-2017 5:53pm CST
Clear
Clear
 Wind from S
Wind: S 5 mph , 7 km/h
Temperature: 68°F , 20°C
Dew Point: 57°F , 14°C
Humidity: 69%
Barometer: 29.46 inHg , 997.6 hPa
Clouds: Clear
Visibility: 10 miles , 16 km
2017/11/17 23:53 KTOP 172353Z 19004KT 10SM CLR 20/14 A2946 RMK AO2 SLP973 T02000144 10233 20178 55003
KICT - Wichita, Kansas, USA
Distance from station: SW 215mi, 346km
Updated: Fri, 17-Nov-2017 5:53pm CST
Mostly cloudy
Mostly cloudy
 Wind from S
Wind: S 9 mph , 15 km/h
Temperature: 66°F , 19°C
Dew Point: 52°F , 11°C
Humidity: 60%
Barometer: 29.49 inHg , 998.6 hPa
Clouds: Mostly cloudy
Visibility: 10 miles , 16 km
Cloud details: Partly cloudy 10000 ft
Mostly cloudy 18000 ft
Mostly cloudy 22000 ft
2017/11/17 23:53 KICT 172353Z 18008KT 10SM SCT100 BKN180 BKN220 19/11 A2949 RMK AO2 SLP977 T01890106 10239 20189 56009